UAE1DP YSSY-OMDB
Flight info
| Callsign | UAE1DP |
|---|---|
| Flight time | N/A |
| Altitude | 30000 |
| Route | KADOM1/34L KADOM H44 MAXEM Q60 KAKLU H309 AD DCT IKEMI DCT LEO/N0499F320 DCT IGASO DCT CAR DCT CC/N0503F340 M641 TANUG/N0496F360 M641 KAT DCT CIA P895 VASTU M300 EMURU P570 ITURA M762 VAXAS/N0475F240 M762 MIVEK P574 IMPED |
| Aircraft | B77W/H-SDE1E2E3FGHIJ2J3J4J5M1RWXY/LB1D1 |
Departure
| Time | N/A |
|---|---|
| Airport | Sydney Kingsford Smith International Airport (YSSY) |
Arrival
| Time | 2026-05-03 22:20 |
|---|---|
| Airport | Dubai International Airport (OMDB) |
| Time | Latitude | Longitude | Altitude | Speed | Heading |
|---|---|---|---|---|---|
| 2026-05-03 20:15 | 6.99977 | 80.02391 | 35869 ft | 525 kts | 315° |
| 2026-05-03 20:15 | 7.05254 | 79.97324 | 35879 ft | 524 kts | 315° |
| 2026-05-03 20:16 | 7.10532 | 79.92253 | 35886 ft | 523 kts | 315° |
| 2026-05-03 20:16 | 7.15608 | 79.87366 | 35883 ft | 523 kts | 314° |
| 2026-05-03 20:17 | 7.20498 | 79.81960 | 35897 ft | 521 kts | 309° |
| 2026-05-03 20:17 | 7.25198 | 79.76466 | 35889 ft | 520 kts | 309° |
| 2026-05-03 20:18 | 7.29925 | 79.70945 | 35867 ft | 519 kts | 309° |
| 2026-05-03 20:18 | 7.34657 | 79.65457 | 35855 ft | 519 kts | 309° |
| 2026-05-03 20:19 | 7.39401 | 79.59975 | 35853 ft | 518 kts | 309° |
| 2026-05-03 20:19 | 7.44129 | 79.54508 | 35849 ft | 518 kts | 309° |
| 2026-05-03 20:20 | 7.48869 | 79.49024 | 35842 ft | 518 kts | 309° |
| 2026-05-03 20:20 | 7.53570 | 79.43582 | 35844 ft | 519 kts | 309° |
| 2026-05-03 20:21 | 7.58317 | 79.38082 | 35849 ft | 521 kts | 309° |
| 2026-05-03 20:21 | 7.63076 | 79.32567 | 35846 ft | 522 kts | 309° |
| 2026-05-03 20:22 | 7.67847 | 79.27039 | 35837 ft | 523 kts | 309° |
| 2026-05-03 20:22 | 7.72625 | 79.21500 | 35840 ft | 524 kts | 309° |
| 2026-05-03 20:23 | 7.77412 | 79.15947 | 35840 ft | 524 kts | 309° |
| 2026-05-03 20:23 | 7.82197 | 79.10395 | 35835 ft | 524 kts | 309° |
| 2026-05-03 20:24 | 7.86981 | 79.04843 | 35839 ft | 524 kts | 309° |
| 2026-05-03 20:24 | 7.91762 | 78.99291 | 35829 ft | 524 kts | 309° |
| 2026-05-03 20:25 | 7.96516 | 78.93770 | 35830 ft | 524 kts | 309° |
| 2026-05-03 20:25 | 8.01289 | 78.88223 | 35830 ft | 523 kts | 309° |
| 2026-05-03 20:26 | 8.06063 | 78.82673 | 35824 ft | 523 kts | 309° |
| 2026-05-03 20:26 | 8.10832 | 78.77126 | 35825 ft | 523 kts | 309° |
| 2026-05-03 20:27 | 8.15593 | 78.71587 | 35824 ft | 523 kts | 309° |
| 2026-05-03 20:27 | 8.20362 | 78.66036 | 35815 ft | 523 kts | 308° |
| 2026-05-03 20:28 | 8.25133 | 78.60480 | 35821 ft | 524 kts | 308° |
| 2026-05-03 20:28 | 8.29918 | 78.54906 | 35819 ft | 525 kts | 308° |
| 2026-05-03 20:29 | 8.34669 | 78.49369 | 35816 ft | 526 kts | 308° |
| 2026-05-03 20:29 | 8.39467 | 78.43776 | 35814 ft | 526 kts | 308° |
| 2026-05-03 20:30 | 8.44262 | 78.38182 | 35815 ft | 527 kts | 308° |
| 2026-05-03 20:30 | 8.49058 | 78.32586 | 35812 ft | 527 kts | 308° |
| 2026-05-03 20:31 | 8.53506 | 78.27388 | 35819 ft | 525 kts | 309° |
| 2026-05-03 20:31 | 8.58272 | 78.21823 | 35807 ft | 521 kts | 309° |
| 2026-05-03 20:32 | 8.63000 | 78.16303 | 35801 ft | 517 kts | 309° |
| 2026-05-03 20:32 | 8.67673 | 78.10844 | 35806 ft | 515 kts | 309° |
| 2026-05-03 20:33 | 8.72353 | 78.05374 | 35812 ft | 513 kts | 309° |
| 2026-05-03 20:33 | 8.77021 | 77.99912 | 35817 ft | 514 kts | 309° |
| 2026-05-03 20:34 | 8.81709 | 77.94427 | 35822 ft | 515 kts | 309° |
| 2026-05-03 20:34 | 8.86367 | 77.88973 | 35819 ft | 516 kts | 309° |
| 2026-05-03 20:35 | 8.91062 | 77.83474 | 35816 ft | 517 kts | 310° |
| 2026-05-03 20:35 | 8.95752 | 77.77980 | 35820 ft | 517 kts | 309° |
| 2026-05-03 20:36 | 9.00465 | 77.72455 | 35820 ft | 517 kts | 309° |
| 2026-05-03 20:36 | 9.04793 | 77.67380 | 35821 ft | 517 kts | 309° |
| 2026-05-03 20:37 | 9.09491 | 77.61868 | 35832 ft | 517 kts | 309° |
| 2026-05-03 20:37 | 9.14171 | 77.56376 | 35831 ft | 517 kts | 310° |
| 2026-05-03 20:38 | 9.18868 | 77.50861 | 35865 ft | 517 kts | 310° |
| 2026-05-03 20:38 | 9.23568 | 77.45339 | 35864 ft | 517 kts | 310° |
| 2026-05-03 20:39 | 9.28225 | 77.39867 | 35866 ft | 516 kts | 309° |
| 2026-05-03 20:39 | 9.32910 | 77.34358 | 35899 ft | 516 kts | 309° |
| 2026-05-03 20:40 | 9.37590 | 77.28852 | 35894 ft | 515 kts | 309° |
| 2026-05-03 20:40 | 9.42269 | 77.23347 | 35896 ft | 515 kts | 309° |
| 2026-05-03 20:41 | 9.46919 | 77.17873 | 35915 ft | 515 kts | 310° |
| 2026-05-03 20:41 | 9.51588 | 77.12374 | 35919 ft | 515 kts | 310° |
| 2026-05-03 20:42 | 9.56267 | 77.06859 | 35911 ft | 515 kts | 310° |
| 2026-05-03 20:42 | 9.60940 | 77.01350 | 35915 ft | 516 kts | 310° |
| 2026-05-03 20:43 | 9.64837 | 76.96754 | 35918 ft | 516 kts | 309° |
| 2026-05-03 20:43 | 9.70280 | 76.90330 | 35901 ft | 517 kts | 309° |
| 2026-05-03 20:44 | 9.74207 | 76.85694 | 35909 ft | 517 kts | 309° |
| 2026-05-03 20:44 | 9.78861 | 76.80199 | 35914 ft | 517 kts | 309° |
| 2026-05-03 20:45 | 9.83572 | 76.74632 | 35886 ft | 516 kts | 309° |
| 2026-05-03 20:45 | 9.88214 | 76.69143 | 35892 ft | 516 kts | 309° |
| 2026-05-03 20:46 | 9.92881 | 76.63622 | 35873 ft | 515 kts | 309° |
| 2026-05-03 20:46 | 9.97545 | 76.58104 | 35868 ft | 514 kts | 309° |
| 2026-05-03 20:47 | 10.02196 | 76.52597 | 35863 ft | 514 kts | 309° |
| 2026-05-03 20:47 | 10.06850 | 76.47084 | 35858 ft | 513 kts | 309° |
| 2026-05-03 20:48 | 10.11500 | 76.41571 | 35857 ft | 513 kts | 309° |
| 2026-05-03 20:48 | 10.16103 | 76.36109 | 35857 ft | 513 kts | 309° |
| 2026-05-03 20:49 | 10.20691 | 76.30569 | 35861 ft | 512 kts | 309° |
| 2026-05-03 20:49 | 10.25254 | 76.25015 | 35858 ft | 513 kts | 309° |
| 2026-05-03 20:50 | 10.29832 | 76.19447 | 35853 ft | 513 kts | 309° |
| 2026-05-03 20:50 | 10.34418 | 76.13877 | 35851 ft | 513 kts | 308° |
| 2026-05-03 20:51 | 10.38988 | 76.08302 | 35853 ft | 513 kts | 308° |
| 2026-05-03 20:51 | 10.43564 | 76.02740 | 35849 ft | 513 kts | 309° |
| 2026-05-03 20:52 | 10.48143 | 75.97180 | 35849 ft | 512 kts | 309° |
| 2026-05-03 20:52 | 10.52720 | 75.91615 | 35841 ft | 512 kts | 308° |
| 2026-05-03 20:53 | 10.57259 | 75.86090 | 35851 ft | 512 kts | 308° |
| 2026-05-03 20:53 | 10.61838 | 75.80526 | 35849 ft | 512 kts | 309° |
| 2026-05-03 20:54 | 10.66413 | 75.74979 | 35851 ft | 511 kts | 309° |
| 2026-05-03 20:54 | 10.73229 | 75.66670 | 35847 ft | 508 kts | 309° |
| 2026-05-03 20:55 | 10.78773 | 75.59902 | 35838 ft | 506 kts | 309° |
| 2026-05-03 20:55 | 10.87703 | 75.48999 | 35834 ft | 504 kts | 309° |
| 2026-05-03 20:56 | 10.96647 | 75.38071 | 35846 ft | 504 kts | 309° |
| 2026-05-03 20:56 | 11.04069 | 75.28993 | 35839 ft | 504 kts | 309° |
| 2026-05-03 20:57 | 11.08536 | 75.23525 | 35838 ft | 504 kts | 309° |
| 2026-05-03 20:57 | 11.13025 | 75.18028 | 35837 ft | 505 kts | 309° |
| 2026-05-03 20:58 | 11.17487 | 75.12560 | 35836 ft | 505 kts | 309° |
| 2026-05-03 20:58 | 11.21939 | 75.07102 | 35836 ft | 506 kts | 309° |
| 2026-05-03 20:59 | 11.26435 | 75.01582 | 35835 ft | 506 kts | 308° |
| 2026-05-03 20:59 | 11.30678 | 74.96377 | 35837 ft | 507 kts | 308° |
| 2026-05-03 21:00 | 11.34432 | 74.91768 | 35838 ft | 507 kts | 308° |
| 2026-05-03 21:00 | 11.39707 | 74.85294 | 35839 ft | 508 kts | 308° |
| 2026-05-03 21:01 | 11.44193 | 74.79782 | 35836 ft | 508 kts | 308° |
| 2026-05-03 21:01 | 11.48709 | 74.74228 | 35835 ft | 508 kts | 308° |
| 2026-05-03 21:02 | 11.53209 | 74.68690 | 35833 ft | 508 kts | 308° |
| 2026-05-03 21:02 | 11.57725 | 74.63130 | 35829 ft | 508 kts | 308° |
| 2026-05-03 21:03 | 11.62229 | 74.57581 | 35833 ft | 508 kts | 308° |
| 2026-05-03 21:03 | 11.66732 | 74.52032 | 35831 ft | 507 kts | 308° |
| 2026-05-03 21:04 | 11.71187 | 74.46538 | 35829 ft | 505 kts | 308° |
| 2026-05-03 21:04 | 11.75666 | 74.41011 | 35829 ft | 505 kts | 308° |
| 2026-05-03 21:05 | 11.80137 | 74.35490 | 35828 ft | 504 kts | 308° |
| 2026-05-03 21:05 | 11.84608 | 74.29968 | 35831 ft | 504 kts | 308° |
| 2026-05-03 21:06 | 11.89083 | 74.24436 | 35830 ft | 505 kts | 308° |
| 2026-05-03 21:06 | 11.93557 | 74.18903 | 35827 ft | 506 kts | 308° |
| 2026-05-03 21:07 | 11.98040 | 74.13356 | 35836 ft | 505 kts | 308° |
| 2026-05-03 21:07 | 12.02479 | 74.07860 | 35826 ft | 505 kts | 308° |
| 2026-05-03 21:08 | 12.14482 | 73.92982 | 35826 ft | 503 kts | 308° |
| 2026-05-03 21:08 | 12.32161 | 73.71027 | 35836 ft | 502 kts | 308° |
| 2026-05-03 21:09 | 12.49882 | 73.48969 | 35826 ft | 501 kts | 308° |
| 2026-05-03 21:09 | 12.67551 | 73.26921 | 35818 ft | 501 kts | 308° |
| 2026-05-03 21:10 | 12.85221 | 73.04820 | 35831 ft | 501 kts | 308° |
| 2026-05-03 21:10 | 13.02929 | 72.82616 | 35821 ft | 503 kts | 308° |
| 2026-05-03 21:11 | 13.20505 | 72.60523 | 35818 ft | 504 kts | 308° |
| 2026-05-03 21:11 | 13.38245 | 72.38169 | 35836 ft | 504 kts | 308° |
| 2026-05-03 21:12 | 13.55989 | 72.15748 | 35821 ft | 506 kts | 308° |
| 2026-05-03 21:12 | 13.73085 | 71.92883 | 35788 ft | 505 kts | 302° |
| 2026-05-03 21:13 | 13.88400 | 71.68699 | 35839 ft | 502 kts | 303° |
| 2026-05-03 21:13 | 14.03713 | 71.44608 | 35810 ft | 503 kts | 303° |
| 2026-05-03 21:14 | 14.17563 | 71.22757 | 35833 ft | 504 kts | 303° |
| 2026-05-03 21:14 | 14.21395 | 71.16702 | 35835 ft | 502 kts | 302° |
| 2026-05-03 21:15 | 14.25184 | 71.10708 | 35817 ft | 502 kts | 302° |
| 2026-05-03 21:15 | 14.28993 | 71.04680 | 35829 ft | 501 kts | 302° |
| 2026-05-03 21:16 | 14.32804 | 70.98642 | 35827 ft | 502 kts | 302° |
| 2026-05-03 21:16 | 14.36623 | 70.92606 | 35818 ft | 503 kts | 303° |
| 2026-05-03 21:17 | 14.39842 | 70.87601 | 35826 ft | 503 kts | 303° |
| 2026-05-03 21:17 | 14.44387 | 70.80564 | 35828 ft | 504 kts | 303° |
| 2026-05-03 21:18 | 14.63932 | 70.50107 | 35801 ft | 506 kts | 303° |
| 2026-05-03 21:18 | 14.95111 | 70.01277 | 35816 ft | 505 kts | 303° |
| 2026-05-03 21:19 | 15.25995 | 69.52922 | 35818 ft | 506 kts | 303° |
| 2026-05-03 21:19 | 15.52632 | 69.11305 | 35822 ft | 507 kts | 303° |
| 2026-05-03 21:20 | 15.56533 | 69.05194 | 35824 ft | 507 kts | 303° |
| 2026-05-03 21:20 | 15.60426 | 68.99093 | 35832 ft | 507 kts | 303° |
| 2026-05-03 21:21 | 15.64324 | 68.92974 | 35821 ft | 507 kts | 303° |
| 2026-05-03 21:21 | 15.68201 | 68.86883 | 35829 ft | 504 kts | 303° |
| 2026-05-03 21:22 | 15.72052 | 68.80827 | 35826 ft | 502 kts | 303° |
| 2026-05-03 21:22 | 15.90467 | 68.51801 | 35828 ft | 501 kts | 303° |
| 2026-05-03 21:23 | 16.20983 | 68.03463 | 35826 ft | 499 kts | 303° |
| 2026-05-03 21:23 | 16.51453 | 67.55313 | 35839 ft | 498 kts | 303° |
| 2026-05-03 21:24 | 16.81885 | 67.06963 | 35850 ft | 497 kts | 304° |
| 2026-05-03 21:24 | 17.12050 | 66.58730 | 35821 ft | 495 kts | 303° |
| 2026-05-03 21:25 | 17.41921 | 66.10614 | 35795 ft | 495 kts | 303° |
| 2026-05-03 21:25 | 17.72068 | 65.62366 | 35812 ft | 495 kts | 305° |
| 2026-05-03 21:26 | 18.02780 | 65.14480 | 35805 ft | 494 kts | 305° |
| 2026-05-03 21:26 | 18.33472 | 64.66209 | 35789 ft | 495 kts | 304° |
| 2026-05-03 21:27 | 18.63888 | 64.18001 | 35803 ft | 493 kts | 304° |
| 2026-05-03 21:27 | 18.94156 | 63.69644 | 35788 ft | 491 kts | 304° |
| 2026-05-03 21:28 | 19.24120 | 63.21439 | 35771 ft | 490 kts | 304° |
| 2026-05-03 21:28 | 19.54056 | 62.72904 | 36682 ft | 494 kts | 303° |
| 2026-05-03 21:29 | 19.68881 | 62.48718 | 37785 ft | 493 kts | 303° |
| 2026-05-03 21:29 | 19.78974 | 62.32192 | 37853 ft | 494 kts | 303° |
| 2026-05-03 21:29 | 19.84212 | 62.23602 | 37763 ft | 472 kts | 303° |
| 2026-05-03 21:30 | 19.87726 | 62.17828 | 37767 ft | 467 kts | 303° |
| 2026-05-03 21:30 | 19.91280 | 62.11987 | 37782 ft | 474 kts | 303° |
| 2026-05-03 21:31 | 19.94853 | 62.06108 | 37773 ft | 476 kts | 303° |
| 2026-05-03 21:31 | 19.98435 | 62.00207 | 37768 ft | 475 kts | 303° |
| 2026-05-03 21:32 | 20.02014 | 61.94307 | 37762 ft | 473 kts | 303° |
| 2026-05-03 21:32 | 20.05577 | 61.88426 | 37761 ft | 472 kts | 303° |
| 2026-05-03 21:33 | 20.09132 | 61.82554 | 37755 ft | 472 kts | 303° |
| 2026-05-03 21:33 | 20.12688 | 61.76672 | 37757 ft | 473 kts | 303° |
| 2026-05-03 21:34 | 20.16229 | 61.70810 | 37766 ft | 473 kts | 303° |
| 2026-05-03 21:34 | 20.19793 | 61.64905 | 37765 ft | 474 kts | 303° |
| 2026-05-03 21:35 | 20.23362 | 61.58985 | 37760 ft | 475 kts | 303° |
| 2026-05-03 21:35 | 20.26930 | 61.53060 | 37761 ft | 475 kts | 302° |
| 2026-05-03 21:36 | 20.30500 | 61.47127 | 37761 ft | 475 kts | 302° |
| 2026-05-03 21:36 | 20.34034 | 61.41247 | 37760 ft | 475 kts | 302° |
| 2026-05-03 21:37 | 20.37593 | 61.35318 | 37756 ft | 475 kts | 302° |
| 2026-05-03 21:37 | 20.41157 | 61.29376 | 37755 ft | 475 kts | 302° |
| 2026-05-03 21:38 | 20.44687 | 61.23485 | 37755 ft | 475 kts | 302° |
| 2026-05-03 21:38 | 20.48246 | 61.17538 | 37759 ft | 475 kts | 302° |
| 2026-05-03 21:39 | 20.51772 | 61.11641 | 37765 ft | 474 kts | 302° |
| 2026-05-03 21:39 | 20.55315 | 61.05708 | 37751 ft | 473 kts | 302° |
| 2026-05-03 21:40 | 20.58851 | 60.99782 | 37755 ft | 472 kts | 302° |
| 2026-05-03 21:40 | 20.62495 | 60.93946 | 37759 ft | 472 kts | 308° |
| 2026-05-03 21:41 | 20.66745 | 60.88588 | 37765 ft | 472 kts | 310° |
| 2026-05-03 21:41 | 20.71049 | 60.83278 | 37760 ft | 473 kts | 310° |
| 2026-05-03 21:42 | 20.75306 | 60.77980 | 37766 ft | 473 kts | 310° |
| 2026-05-03 21:42 | 20.79573 | 60.72635 | 37738 ft | 473 kts | 310° |
| 2026-05-03 21:43 | 20.90304 | 60.59151 | 37752 ft | 472 kts | 310° |
| 2026-05-03 21:43 | 21.24292 | 60.16242 | 37757 ft | 470 kts | 309° |
| 2026-05-03 21:44 | 21.58081 | 59.73416 | 37749 ft | 470 kts | 309° |
| 2026-05-03 21:44 | 21.86383 | 59.37120 | 39455 ft | 469 kts | 309° |
| 2026-05-03 21:45 | 21.88573 | 59.34301 | 37676 ft | 465 kts | 309° |
| 2026-05-03 21:45 | 21.90633 | 59.31649 | 37742 ft | 462 kts | 309° |
| 2026-05-03 21:45 | 21.94753 | 59.26338 | 37775 ft | 468 kts | 309° |
| 2026-05-03 21:46 | 21.98938 | 59.20939 | 37792 ft | 473 kts | 309° |
| 2026-05-03 21:46 | 22.03160 | 59.15487 | 37769 ft | 475 kts | 309° |
| 2026-05-03 21:47 | 22.07398 | 59.10010 | 37796 ft | 475 kts | 309° |
| 2026-05-03 21:47 | 22.11634 | 59.04528 | 37804 ft | 475 kts | 309° |
| 2026-05-03 21:48 | 22.15830 | 58.99092 | 37812 ft | 474 kts | 309° |
| 2026-05-03 21:48 | 22.20048 | 58.93637 | 37790 ft | 473 kts | 310° |
| 2026-05-03 21:49 | 22.24827 | 58.88756 | 37805 ft | 474 kts | 320° |
| 2026-05-03 21:49 | 22.30262 | 58.84712 | 37815 ft | 475 kts | 327° |
| 2026-05-03 21:50 | 22.53120 | 58.69809 | 37803 ft | 474 kts | 326° |
| 2026-05-03 21:50 | 22.98073 | 58.40075 | 37840 ft | 473 kts | 326° |
| 2026-05-03 21:51 | 23.20835 | 58.24905 | 37791 ft | 470 kts | 326° |
| 2026-05-03 21:51 | 23.26399 | 58.21179 | 37815 ft | 470 kts | 326° |
| 2026-05-03 21:52 | 23.31979 | 58.17444 | 37792 ft | 470 kts | 326° |
| 2026-05-03 21:52 | 23.37374 | 58.13549 | 37787 ft | 467 kts | 318° |
| 2026-05-03 21:53 | 23.42026 | 58.08662 | 37791 ft | 464 kts | 310° |
| 2026-05-03 21:53 | 23.45882 | 58.03067 | 37810 ft | 462 kts | 304° |
| 2026-05-03 21:54 | 23.71565 | 57.65249 | 37744 ft | 463 kts | 307° |
| 2026-05-03 21:54 | 24.00353 | 57.24781 | 37767 ft | 462 kts | 306° |
| 2026-05-03 21:55 | 24.04217 | 57.19319 | 37738 ft | 454 kts | 306° |
| 2026-05-03 21:55 | 24.08109 | 57.13816 | 37759 ft | 460 kts | 306° |
| 2026-05-03 21:56 | 24.12055 | 57.08233 | 37723 ft | 467 kts | 306° |
| 2026-05-03 21:56 | 24.14055 | 57.05401 | 37377 ft | 470 kts | 306° |
| 2026-05-03 21:56 | 24.16050 | 57.02574 | 36792 ft | 468 kts | 306° |
| 2026-05-03 21:57 | 24.18015 | 56.99790 | 36133 ft | 464 kts | 306° |
| 2026-05-03 21:57 | 24.19982 | 56.97000 | 35425 ft | 461 kts | 306° |
| 2026-05-03 21:57 | 24.21935 | 56.94229 | 34759 ft | 458 kts | 306° |
| 2026-05-03 21:57 | 24.23878 | 56.91466 | 34070 ft | 455 kts | 305° |
| 2026-05-03 21:58 | 24.25801 | 56.88723 | 33352 ft | 453 kts | 306° |
| 2026-05-03 21:58 | 24.27713 | 56.85993 | 32601 ft | 451 kts | 306° |
| 2026-05-03 21:58 | 24.29631 | 56.83251 | 31875 ft | 455 kts | 306° |
| 2026-05-03 21:58 | 24.31587 | 56.80454 | 31177 ft | 467 kts | 306° |
| 2026-05-03 21:59 | 24.33583 | 56.77598 | 30481 ft | 475 kts | 306° |
| 2026-05-03 21:59 | 24.35578 | 56.74745 | 29823 ft | 480 kts | 307° |
| 2026-05-03 21:59 | 24.37614 | 56.71833 | 29028 ft | 483 kts | 307° |
| 2026-05-03 21:59 | 24.39663 | 56.68901 | 28263 ft | 485 kts | 307° |
| 2026-05-03 22:00 | 24.41718 | 56.65958 | 27515 ft | 486 kts | 307° |
| 2026-05-03 22:00 | 24.43805 | 56.63042 | 26763 ft | 484 kts | 309° |
| 2026-05-03 22:00 | 24.46058 | 56.60322 | 26027 ft | 476 kts | 313° |
| 2026-05-03 22:00 | 24.48328 | 56.57711 | 25346 ft | 469 kts | 313° |
| 2026-05-03 22:01 | 24.50568 | 56.55133 | 24659 ft | 463 kts | 313° |
| 2026-05-03 22:01 | 24.52773 | 56.52582 | 24009 ft | 459 kts | 313° |
| 2026-05-03 22:01 | 24.54957 | 56.50041 | 23374 ft | 455 kts | 313° |
| 2026-05-03 22:01 | 24.57127 | 56.47508 | 22620 ft | 452 kts | 313° |
| 2026-05-03 22:02 | 24.59265 | 56.45007 | 21862 ft | 448 kts | 313° |
| 2026-05-03 22:02 | 24.61394 | 56.42514 | 21126 ft | 445 kts | 313° |
| 2026-05-03 22:02 | 24.63501 | 56.40046 | 20435 ft | 440 kts | 313° |
| 2026-05-03 22:02 | 24.65561 | 56.37634 | 19781 ft | 434 kts | 313° |
| 2026-05-03 22:03 | 24.67607 | 56.35236 | 19279 ft | 426 kts | 313° |
| 2026-05-03 22:03 | 24.69659 | 56.32939 | 18730 ft | 417 kts | 318° |
| 2026-05-03 22:03 | 24.71994 | 56.31057 | 18189 ft | 415 kts | 328° |
| 2026-05-03 22:03 | 24.74500 | 56.29506 | 17677 ft | 417 kts | 333° |
| 2026-05-03 22:04 | 24.77177 | 56.28302 | 17058 ft | 408 kts | 336° |
| 2026-05-03 22:04 | 24.79488 | 56.26733 | 16415 ft | 376 kts | 316° |
| 2026-05-03 22:04 | 24.81058 | 56.24572 | 15865 ft | 349 kts | 306° |
| 2026-05-03 22:04 | 24.82535 | 56.22562 | 15308 ft | 328 kts | 313° |
| 2026-05-03 22:05 | 24.84093 | 56.20823 | 14746 ft | 311 kts | 316° |
| 2026-05-03 22:05 | 24.85625 | 56.19208 | 14179 ft | 298 kts | 316° |
| 2026-05-03 22:05 | 24.87101 | 56.17665 | 13651 ft | 286 kts | 316° |
| 2026-05-03 22:05 | 24.88493 | 56.16191 | 13073 ft | 277 kts | 315° |
| 2026-05-03 22:06 | 24.89820 | 56.14703 | 12497 ft | 269 kts | 314° |
| 2026-05-03 22:06 | 24.91124 | 56.13208 | 12148 ft | 276 kts | 314° |
| 2026-05-03 22:06 | 24.92508 | 56.11623 | 11831 ft | 295 kts | 314° |
| 2026-05-03 22:06 | 24.93951 | 56.09974 | 11473 ft | 298 kts | 314° |
| 2026-05-03 22:07 | 24.95399 | 56.08329 | 11104 ft | 298 kts | 314° |
| 2026-05-03 22:07 | 24.96856 | 56.06673 | 10670 ft | 302 kts | 314° |
| 2026-05-03 22:07 | 24.98319 | 56.04997 | 10218 ft | 304 kts | 314° |
| 2026-05-03 22:07 | 24.99778 | 56.03333 | 9765 ft | 306 kts | 314° |
| 2026-05-03 22:08 | 25.01260 | 56.01642 | 9275 ft | 307 kts | 314° |
| 2026-05-03 22:08 | 25.02753 | 55.99948 | 8795 ft | 308 kts | 314° |
| 2026-05-03 22:08 | 25.04254 | 55.98242 | 8325 ft | 310 kts | 313° |
| 2026-05-03 22:08 | 25.05616 | 55.96460 | 7816 ft | 300 kts | 300° |
| 2026-05-03 22:09 | 25.06332 | 55.94314 | 7408 ft | 296 kts | 283° |
| 2026-05-03 22:09 | 25.06640 | 55.92123 | 7058 ft | 282 kts | 280° |
| 2026-05-03 22:09 | 25.06902 | 55.90007 | 6707 ft | 277 kts | 279° |
| 2026-05-03 22:10 | 25.07415 | 55.85822 | 6021 ft | 275 kts | 280° |
| 2026-05-03 22:10 | 25.07674 | 55.83733 | 5643 ft | 274 kts | 279° |
| 2026-05-03 22:10 | 25.07932 | 55.81660 | 5320 ft | 273 kts | 279° |
| 2026-05-03 22:10 | 25.08193 | 55.79580 | 4952 ft | 273 kts | 279° |
| 2026-05-03 22:11 | 25.08454 | 55.77501 | 4601 ft | 273 kts | 279° |
| 2026-05-03 22:11 | 25.08714 | 55.75432 | 4220 ft | 268 kts | 279° |
| 2026-05-03 22:11 | 25.08961 | 55.73470 | 3873 ft | 248 kts | 279° |
| 2026-05-03 22:11 | 25.09194 | 55.71619 | 3657 ft | 241 kts | 279° |
| 2026-05-03 22:12 | 25.09415 | 55.69865 | 3381 ft | 225 kts | 279° |
| 2026-05-03 22:12 | 25.09622 | 55.68217 | 3106 ft | 209 kts | 278° |
| 2026-05-03 22:12 | 25.09814 | 55.66685 | 2816 ft | 194 kts | 279° |
| 2026-05-03 22:12 | 25.09993 | 55.65263 | 2650 ft | 185 kts | 279° |
| 2026-05-03 22:13 | 25.10180 | 55.63850 | 2579 ft | 182 kts | 284° |
| 2026-05-03 22:13 | 25.10741 | 55.62631 | 2563 ft | 179 kts | 303° |
| 2026-05-03 22:13 | 25.11429 | 55.61464 | 2573 ft | 183 kts | 300° |
| 2026-05-03 22:13 | 25.12097 | 55.60259 | 2566 ft | 184 kts | 300° |
| 2026-05-03 22:14 | 25.12755 | 55.59070 | 2560 ft | 182 kts | 300° |
| 2026-05-03 22:14 | 25.13416 | 55.57877 | 2553 ft | 182 kts | 300° |
| 2026-05-03 22:14 | 25.14082 | 55.56675 | 2568 ft | 183 kts | 300° |
| 2026-05-03 22:14 | 25.14744 | 55.55480 | 2594 ft | 183 kts | 300° |
| 2026-05-03 22:15 | 25.15184 | 55.54685 | 2598 ft | 183 kts | 300° |
| 2026-05-03 22:15 | 25.15847 | 55.53488 | 2591 ft | 183 kts | 300° |
| 2026-05-03 22:15 | 25.16729 | 55.51896 | 2440 ft | 187 kts | 300° |
| 2026-05-03 22:15 | 25.17389 | 55.50706 | 2208 ft | 174 kts | 300° |
| 2026-05-03 22:16 | 25.17800 | 55.49965 | 2084 ft | 161 kts | 300° |
| 2026-05-03 22:16 | 25.18353 | 55.48966 | 1873 ft | 143 kts | 300° |
| 2026-05-03 22:16 | 25.18857 | 55.48054 | 1724 ft | 142 kts | 300° |
| 2026-05-03 22:16 | 25.19374 | 55.47119 | 1540 ft | 143 kts | 300° |
| 2026-05-03 22:17 | 25.19890 | 55.46188 | 1348 ft | 141 kts | 300° |
| 2026-05-03 22:17 | 25.20404 | 55.45259 | 1175 ft | 142 kts | 300° |
| 2026-05-03 22:17 | 25.20924 | 55.44319 | 990 ft | 145 kts | 300° |
| 2026-05-03 22:17 | 25.21142 | 55.43926 | 925 ft | 147 kts | 301° |
| 2026-05-03 22:18 | 25.21166 | 55.43882 | 920 ft | 147 kts | 301° |
| 2026-05-03 22:18 | 25.21709 | 55.42899 | 730 ft | 152 kts | 300° |
| 2026-05-03 22:18 | 25.22265 | 55.41897 | 561 ft | 154 kts | 300° |
| 2026-05-03 22:18 | 25.22823 | 55.40891 | 358 ft | 154 kts | 300° |
| 2026-05-03 22:19 | 25.23365 | 55.39899 | 197 ft | 147 kts | 299° |
| 2026-05-03 22:19 | 25.23616 | 55.39440 | 55 ft | 145 kts | 299° |
| 2026-05-03 22:19 | 25.23826 | 55.39048 | 31 ft | 142 kts | 300° |
| 2026-05-03 22:19 | 25.24029 | 55.38668 | 28 ft | 118 kts | 301° |
| 2026-05-03 22:20 | 25.24237 | 55.38293 | 31 ft | 83 kts | 302° |
| 2026-05-03 22:20 | 25.24361 | 55.38072 | 30 ft | 59 kts | 301° |
| 2026-05-03 22:20 | 25.24421 | 55.37964 | 29 ft | 28 kts | 301° |
| 2026-05-03 22:20 | 25.24451 | 55.37908 | 29 ft | 12 kts | 300° |